FMCZ

Dzaoudzi Pamandzi International Airport

Dzaoudzi, Mayotte
FMCZ 141700Z 1418/1518 02008KT 9999 FEW022 TEMPO 1500/1506 4500 SHRA SCT022TCU
Issued Valid From Valid To
Dec-14 @ 17:00 UTC
(5 hours ago)
Dec-14 @ 18:00 UTC
(4 hours ago)
Dec-15 @ 18:00 UTC
(in 20 hours)
Dec-14 @ 18:00 to Dec-15 @ 18:00
FMCZ 141700Z 1418/1518 02008KT 9999 FEW022
Wind Visibility Clouds
20° at 8 knots 10,000+ meters
  • Few at 2,200' AGL
Temporary Dec-15 @ 00:00 to Dec-15 @ 06:00
TEMPO 1500/1506 4500 SHRA SCT022TCU
Visibility Clouds Conditions
4,506 meters
  • Scattered at 2,200' AGL
  • Rain
FMCZ 141700Z 1418/1518 02008KT 9999 FEW022 TEMPO 1500/1506 4500 SHRA SCT022TCU
Issued Dec-14 @ 17:00 UTC
(5 hours ago)
Valid From Dec-14 @ 18:00 UTC
(4 hours ago)
Valid To Dec-15 @ 18:00 UTC
(in 20 hours)
Dec-14 @ 18:00 - Dec-15 @ 18:00
Wind Visibility
20° at 8 knots 10,000+ meters
Clouds
  • Few at 2,200' AGL
Temporary Dec-15 @ 00:00 - Dec-15 @ 06:00
Clouds
  • Scattered at 2,200' AGL
Conditions
  • Rain